sensor_id;sensor_type;location;lat;lon;timestamp;P1;durP1;ratioP1;P2;durP2;ratioP2
16928;SDS011;8581;47.334;11.190;2023-11-22T00:00:01;1.00;;;1.00;;
16928;SDS011;8581;47.334;11.190;2023-11-22T00:02:33;0.80;;;0.80;;
16928;SDS011;8581;47.334;11.190;2023-11-22T00:05:05;0.70;;;0.70;;
16928;SDS011;8581;47.334;11.190;2023-11-22T00:07:37;0.77;;;0.60;;
16928;SDS011;8581;47.334;11.190;2023-11-22T00:10:08;0.50;;;0.50;;
16928;SDS011;8581;47.334;11.190;2023-11-22T00:12:40;0.40;;;0.40;;
16928;SDS011;8581;47.334;11.190;2023-11-22T00:15:12;0.60;;;0.60;;
16928;SDS011;8581;47.334;11.190;2023-11-22T00:17:44;0.80;;;0.80;;
16928;SDS011;8581;47.334;11.190;2023-11-22T00:20:15;0.60;;;0.60;;
16928;SDS011;8581;47.334;11.190;2023-11-22T00:22:47;0.40;;;0.40;;
16928;SDS011;8581;47.334;11.190;2023-11-22T00:25:18;0.60;;;0.60;;
16928;SDS011;8581;47.334;11.190;2023-11-22T00:27:51;1.37;;;0.60;;
16928;SDS011;8581;47.334;11.190;2023-11-22T00:30:28;0.60;;;0.60;;
16928;SDS011;8581;47.334;11.190;2023-11-22T00:33:02;1.47;;;1.37;;
16928;SDS011;8581;47.334;11.190;2023-11-22T00:35:36;0.60;;;0.60;;
16928;SDS011;8581;47.334;11.190;2023-11-22T00:38:11;0.60;;;0.60;;
16928;SDS011;8581;47.334;11.190;2023-11-22T00:40:53;0.70;;;0.70;;
16928;SDS011;8581;47.334;11.190;2023-11-22T00:43:25;0.80;;;0.80;;
16928;SDS011;8581;47.334;11.190;2023-11-22T00:46:05;0.73;;;0.73;;
16928;SDS011;8581;47.334;11.190;2023-11-22T00:48:36;0.90;;;0.90;;
16928;SDS011;8581;47.334;11.190;2023-11-22T00:51:08;1.87;;;1.77;;
16928;SDS011;8581;47.334;11.190;2023-11-22T00:53:40;1.80;;;1.70;;
16928;SDS011;8581;47.334;11.190;2023-11-22T00:56:11;2.20;;;2.10;;
16928;SDS011;8581;47.334;11.190;2023-11-22T00:58:43;2.13;;;1.93;;
16928;SDS011;8581;47.334;11.190;2023-11-22T01:01:15;2.20;;;2.10;;
16928;SDS011;8581;47.334;11.190;2023-11-22T01:03:47;2.73;;;2.53;;
16928;SDS011;8581;47.334;11.190;2023-11-22T01:06:19;2.50;;;2.30;;
16928;SDS011;8581;47.334;11.190;2023-11-22T01:08:51;2.90;;;2.27;;
16928;SDS011;8581;47.334;11.190;2023-11-22T01:11:22;2.40;;;2.20;;
16928;SDS011;8581;47.334;11.190;2023-11-22T01:13:54;2.70;;;2.50;;
16928;SDS011;8581;47.334;11.190;2023-11-22T01:16:26;2.53;;;2.33;;
16928;SDS011;8581;47.334;11.190;2023-11-22T01:18:59;2.43;;;2.23;;
16928;SDS011;8581;47.334;11.190;2023-11-22T01:21:30;2.47;;;2.10;;
16928;SDS011;8581;47.334;11.190;2023-11-22T01:24:02;2.30;;;2.10;;
16928;SDS011;8581;47.334;11.190;2023-11-22T01:26:34;2.20;;;2.10;;
16928;SDS011;8581;47.334;11.190;2023-11-22T01:29:07;2.00;;;1.90;;
16928;SDS011;8581;47.334;11.190;2023-11-22T01:31:42;2.20;;;2.10;;
16928;SDS011;8581;47.334;11.190;2023-11-22T01:34:15;2.30;;;2.10;;
16928;SDS011;8581;47.334;11.190;2023-11-22T01:36:49;2.50;;;2.30;;
16928;SDS011;8581;47.334;11.190;2023-11-22T01:39:19;2.50;;;2.30;;
16928;SDS011;8581;47.334;11.190;2023-11-22T01:41:50;2.50;;;2.30;;
16928;SDS011;8581;47.334;11.190;2023-11-22T01:44:22;2.10;;;2.00;;
16928;SDS011;8581;47.334;11.190;2023-11-22T01:46:54;2.30;;;2.20;;
16928;SDS011;8581;47.334;11.190;2023-11-22T01:49:25;2.00;;;1.90;;
16928;SDS011;8581;47.334;11.190;2023-11-22T01:51:57;2.20;;;2.10;;
16928;SDS011;8581;47.334;11.190;2023-11-22T01:54:29;2.00;;;1.80;;
16928;SDS011;8581;47.334;11.190;2023-11-22T01:57:01;1.90;;;1.70;;
16928;SDS011;8581;47.334;11.190;2023-11-22T01:59:33;1.80;;;1.70;;
16928;SDS011;8581;47.334;11.190;2023-11-22T02:02:05;1.80;;;1.70;;
16928;SDS011;8581;47.334;11.190;2023-11-22T02:04:37;1.77;;;1.67;;
16928;SDS011;8581;47.334;11.190;2023-11-22T02:07:08;1.90;;;1.80;;
16928;SDS011;8581;47.334;11.190;2023-11-22T02:09:40;1.87;;;1.77;;
16928;SDS011;8581;47.334;11.190;2023-11-22T02:12:12;1.90;;;1.80;;
16928;SDS011;8581;47.334;11.190;2023-11-22T02:14:44;1.90;;;1.80;;
16928;SDS011;8581;47.334;11.190;2023-11-22T02:17:16;1.60;;;1.50;;
16928;SDS011;8581;47.334;11.190;2023-11-22T02:19:48;1.97;;;1.87;;
16928;SDS011;8581;47.334;11.190;2023-11-22T02:22:20;1.70;;;1.60;;
16928;SDS011;8581;47.334;11.190;2023-11-22T02:24:51;9.97;;;9.17;;
16928;SDS011;8581;47.334;11.190;2023-11-22T02:27:23;2.27;;;2.07;;
16928;SDS011;8581;47.334;11.190;2023-11-22T02:29:55;2.50;;;2.30;;
16928;SDS011;8581;47.334;11.190;2023-11-22T02:32:26;2.00;;;1.90;;
16928;SDS011;8581;47.334;11.190;2023-11-22T02:34:58;1.87;;;1.77;;
16928;SDS011;8581;47.334;11.190;2023-11-22T02:37:30;2.10;;;2.00;;
16928;SDS011;8581;47.334;11.190;2023-11-22T02:40:06;1.80;;;1.70;;
16928;SDS011;8581;47.334;11.190;2023-11-22T02:42:39;2.57;;;1.90;;
16928;SDS011;8581;47.334;11.190;2023-11-22T02:45:11;1.70;;;1.60;;
16928;SDS011;8581;47.334;11.190;2023-11-22T02:47:43;1.50;;;1.40;;
16928;SDS011;8581;47.334;11.190;2023-11-22T02:50:14;1.20;;;1.20;;
16928;SDS011;8581;47.334;11.190;2023-11-22T02:52:46;1.00;;;1.00;;
16928;SDS011;8581;47.334;11.190;2023-11-22T02:55:17;0.97;;;0.97;;
16928;SDS011;8581;47.334;11.190;2023-11-22T02:57:49;1.00;;;1.00;;
16928;SDS011;8581;47.334;11.190;2023-11-22T03:00:21;1.40;;;1.30;;
16928;SDS011;8581;47.334;11.190;2023-11-22T03:02:52;1.00;;;1.00;;
16928;SDS011;8581;47.334;11.190;2023-11-22T03:05:24;1.57;;;1.47;;
16928;SDS011;8581;47.334;11.190;2023-11-22T03:07:55;1.23;;;1.20;;
16928;SDS011;8581;47.334;11.190;2023-11-22T03:10:27;1.00;;;1.00;;
16928;SDS011;8581;47.334;11.190;2023-11-22T03:12:59;5.23;;;4.60;;
16928;SDS011;8581;47.334;11.190;2023-11-22T03:15:30;1.57;;;1.47;;
16928;SDS011;8581;47.334;11.190;2023-11-22T03:18:02;2.10;;;1.20;;
16928;SDS011;8581;47.334;11.190;2023-11-22T03:20:34;0.93;;;0.93;;
16928;SDS011;8581;47.334;11.190;2023-11-22T03:23:05;1.00;;;1.00;;
16928;SDS011;8581;47.334;11.190;2023-11-22T03:25:37;0.83;;;0.83;;
16928;SDS011;8581;47.334;11.190;2023-11-22T03:28:08;0.70;;;0.70;;
16928;SDS011;8581;47.334;11.190;2023-11-22T03:30:40;0.80;;;0.80;;
16928;SDS011;8581;47.334;11.190;2023-11-22T03:33:12;0.80;;;0.80;;
16928;SDS011;8581;47.334;11.190;2023-11-22T03:35:43;0.80;;;0.80;;
16928;SDS011;8581;47.334;11.190;2023-11-22T03:38:15;9.20;;;1.43;;
16928;SDS011;8581;47.334;11.190;2023-11-22T03:40:46;0.63;;;0.63;;
16928;SDS011;8581;47.334;11.190;2023-11-22T03:43:18;0.90;;;0.90;;
16928;SDS011;8581;47.334;11.190;2023-11-22T03:45:50;1.17;;;0.90;;
16928;SDS011;8581;47.334;11.190;2023-11-22T03:48:21;0.87;;;0.87;;
16928;SDS011;8581;47.334;11.190;2023-11-22T03:50:53;1.13;;;1.00;;
16928;SDS011;8581;47.334;11.190;2023-11-22T03:53:24;0.80;;;0.80;;
16928;SDS011;8581;47.334;11.190;2023-11-22T03:55:56;0.93;;;0.93;;
16928;SDS011;8581;47.334;11.190;2023-11-22T03:58:28;0.97;;;0.97;;
16928;SDS011;8581;47.334;11.190;2023-11-22T04:00:59;0.70;;;0.70;;
16928;SDS011;8581;47.334;11.190;2023-11-22T04:03:31;0.80;;;0.80;;
16928;SDS011;8581;47.334;11.190;2023-11-22T04:06:03;0.97;;;0.97;;
16928;SDS011;8581;47.334;11.190;2023-11-22T04:08:35;0.90;;;0.90;;
16928;SDS011;8581;47.334;11.190;2023-11-22T04:11:07;1.63;;;1.20;;
16928;SDS011;8581;47.334;11.190;2023-11-22T04:13:39;0.87;;;0.87;;
16928;SDS011;8581;47.334;11.190;2023-11-22T04:16:10;1.10;;;0.80;;
16928;SDS011;8581;47.334;11.190;2023-11-22T04:18:43;1.40;;;1.30;;
16928;SDS011;8581;47.334;11.190;2023-11-22T04:21:14;0.90;;;0.90;;
16928;SDS011;8581;47.334;11.190;2023-11-22T04:23:46;0.90;;;0.90;;
16928;SDS011;8581;47.334;11.190;2023-11-22T04:26:18;1.47;;;0.97;;
16928;SDS011;8581;47.334;11.190;2023-11-22T04:28:49;0.97;;;0.97;;
16928;SDS011;8581;47.334;11.190;2023-11-22T04:31:21;1.23;;;1.13;;
16928;SDS011;8581;47.334;11.190;2023-11-22T04:33:52;1.00;;;1.00;;
16928;SDS011;8581;47.334;11.190;2023-11-22T04:36:24;1.10;;;1.10;;
16928;SDS011;8581;47.334;11.190;2023-11-22T04:38:56;0.90;;;0.90;;
16928;SDS011;8581;47.334;11.190;2023-11-22T04:41:27;0.90;;;0.90;;
16928;SDS011;8581;47.334;11.190;2023-11-22T04:43:59;1.00;;;1.00;;
16928;SDS011;8581;47.334;11.190;2023-11-22T04:46:30;1.03;;;1.03;;
16928;SDS011;8581;47.334;11.190;2023-11-22T04:49:02;1.00;;;1.00;;
16928;SDS011;8581;47.334;11.190;2023-11-22T04:51:33;0.93;;;0.93;;
16928;SDS011;8581;47.334;11.190;2023-11-22T04:54:05;0.90;;;0.90;;
16928;SDS011;8581;47.334;11.190;2023-11-22T04:56:37;1.43;;;1.10;;
16928;SDS011;8581;47.334;11.190;2023-11-22T04:59:09;4.17;;;3.87;;
16928;SDS011;8581;47.334;11.190;2023-11-22T05:01:40;1.83;;;1.73;;
16928;SDS011;8581;47.334;11.190;2023-11-22T05:04:12;1.53;;;1.43;;
16928;SDS011;8581;47.334;11.190;2023-11-22T05:06:43;1.50;;;0.77;;
16928;SDS011;8581;47.334;11.190;2023-11-22T05:09:15;0.70;;;0.70;;
16928;SDS011;8581;47.334;11.190;2023-11-22T05:11:47;0.90;;;0.90;;
16928;SDS011;8581;47.334;11.190;2023-11-22T05:14:18;0.97;;;0.97;;
16928;SDS011;8581;47.334;11.190;2023-11-22T05:16:50;0.93;;;0.87;;
16928;SDS011;8581;47.334;11.190;2023-11-22T05:19:22;0.70;;;0.70;;
16928;SDS011;8581;47.334;11.190;2023-11-22T05:21:53;1.27;;;1.17;;
16928;SDS011;8581;47.334;11.190;2023-11-22T05:24:25;0.90;;;0.90;;
16928;SDS011;8581;47.334;11.190;2023-11-22T05:26:56;1.07;;;1.07;;
16928;SDS011;8581;47.334;11.190;2023-11-22T05:29:28;1.00;;;1.00;;
16928;SDS011;8581;47.334;11.190;2023-11-22T05:32:00;1.00;;;1.00;;
16928;SDS011;8581;47.334;11.190;2023-11-22T05:34:31;1.00;;;1.00;;
16928;SDS011;8581;47.334;11.190;2023-11-22T05:37:03;1.20;;;1.10;;
16928;SDS011;8581;47.334;11.190;2023-11-22T05:39:34;1.00;;;1.00;;
16928;SDS011;8581;47.334;11.190;2023-11-22T05:42:06;1.43;;;1.37;;
16928;SDS011;8581;47.334;11.190;2023-11-22T05:44:38;1.30;;;1.20;;
16928;SDS011;8581;47.334;11.190;2023-11-22T05:47:09;1.20;;;1.20;;
16928;SDS011;8581;47.334;11.190;2023-11-22T05:49:41;1.30;;;1.20;;
16928;SDS011;8581;47.334;11.190;2023-11-22T05:52:12;1.10;;;1.10;;
16928;SDS011;8581;47.334;11.190;2023-11-22T05:54:44;1.43;;;1.33;;
16928;SDS011;8581;47.334;11.190;2023-11-22T05:57:16;1.10;;;1.10;;
16928;SDS011;8581;47.334;11.190;2023-11-22T05:59:47;1.60;;;1.47;;
16928;SDS011;8581;47.334;11.190;2023-11-22T06:02:19;1.53;;;1.43;;
16928;SDS011;8581;47.334;11.190;2023-11-22T06:04:50;1.50;;;1.40;;
16928;SDS011;8581;47.334;11.190;2023-11-22T06:07:22;1.00;;;1.00;;
16928;SDS011;8581;47.334;11.190;2023-11-22T06:09:54;0.70;;;0.70;;
16928;SDS011;8581;47.334;11.190;2023-11-22T06:12:25;1.07;;;1.07;;
16928;SDS011;8581;47.334;11.190;2023-11-22T06:14:57;0.90;;;0.90;;
16928;SDS011;8581;47.334;11.190;2023-11-22T06:17:28;0.70;;;0.70;;
16928;SDS011;8581;47.334;11.190;2023-11-22T06:20:00;0.70;;;0.70;;
16928;SDS011;8581;47.334;11.190;2023-11-22T06:22:32;0.73;;;0.73;;
16928;SDS011;8581;47.334;11.190;2023-11-22T06:25:04;0.60;;;0.60;;
16928;SDS011;8581;47.334;11.190;2023-11-22T06:27:36;0.70;;;0.60;;
16928;SDS011;8581;47.334;11.190;2023-11-22T06:30:08;0.70;;;0.70;;
16928;SDS011;8581;47.334;11.190;2023-11-22T06:32:40;0.50;;;0.50;;
16928;SDS011;8581;47.334;11.190;2023-11-22T06:35:11;1.80;;;0.60;;
16928;SDS011;8581;47.334;11.190;2023-11-22T06:37:43;0.50;;;0.50;;
16928;SDS011;8581;47.334;11.190;2023-11-22T06:40:15;0.40;;;0.40;;
16928;SDS011;8581;47.334;11.190;2023-11-22T06:42:46;0.40;;;0.40;;
16928;SDS011;8581;47.334;11.190;2023-11-22T06:45:19;0.60;;;0.60;;
16928;SDS011;8581;47.334;11.190;2023-11-22T06:47:51;0.60;;;0.60;;
16928;SDS011;8581;47.334;11.190;2023-11-22T06:50:23;0.70;;;0.70;;
16928;SDS011;8581;47.334;11.190;2023-11-22T06:52:54;0.70;;;0.70;;
16928;SDS011;8581;47.334;11.190;2023-11-22T06:55:26;2.20;;;2.00;;
16928;SDS011;8581;47.334;11.190;2023-11-22T06:57:58;1.10;;;0.80;;
16928;SDS011;8581;47.334;11.190;2023-11-22T07:00:29;0.50;;;0.50;;
16928;SDS011;8581;47.334;11.190;2023-11-22T07:03:01;0.60;;;0.60;;
16928;SDS011;8581;47.334;11.190;2023-11-22T07:05:32;0.50;;;0.50;;
16928;SDS011;8581;47.334;11.190;2023-11-22T07:08:04;0.43;;;0.43;;
16928;SDS011;8581;47.334;11.190;2023-11-22T07:10:36;0.43;;;0.43;;
16928;SDS011;8581;47.334;11.190;2023-11-22T07:13:07;0.47;;;0.47;;
16928;SDS011;8581;47.334;11.190;2023-11-22T07:15:39;0.70;;;0.70;;
16928;SDS011;8581;47.334;11.190;2023-11-22T07:18:10;0.63;;;0.63;;
16928;SDS011;8581;47.334;11.190;2023-11-22T07:20:42;0.70;;;0.70;;
16928;SDS011;8581;47.334;11.190;2023-11-22T07:23:14;0.77;;;0.77;;
16928;SDS011;8581;47.334;11.190;2023-11-22T07:25:45;0.90;;;0.80;;
16928;SDS011;8581;47.334;11.190;2023-11-22T07:28:17;0.43;;;0.43;;
16928;SDS011;8581;47.334;11.190;2023-11-22T07:30:48;0.60;;;0.60;;
16928;SDS011;8581;47.334;11.190;2023-11-22T07:33:20;0.47;;;0.47;;
16928;SDS011;8581;47.334;11.190;2023-11-22T07:35:52;0.50;;;0.50;;
16928;SDS011;8581;47.334;11.190;2023-11-22T07:38:23;0.70;;;0.40;;
16928;SDS011;8581;47.334;11.190;2023-11-22T07:40:55;0.50;;;0.50;;
16928;SDS011;8581;47.334;11.190;2023-11-22T07:43:26;0.50;;;0.50;;
16928;SDS011;8581;47.334;11.190;2023-11-22T07:45:58;0.47;;;0.47;;
16928;SDS011;8581;47.334;11.190;2023-11-22T07:48:30;0.60;;;0.53;;
16928;SDS011;8581;47.334;11.190;2023-11-22T07:51:01;0.63;;;0.63;;
16928;SDS011;8581;47.334;11.190;2023-11-22T07:53:33;0.40;;;0.40;;
16928;SDS011;8581;47.334;11.190;2023-11-22T07:56:06;0.40;;;0.40;;
16928;SDS011;8581;47.334;11.190;2023-11-22T07:58:38;0.40;;;0.40;;
16928;SDS011;8581;47.334;11.190;2023-11-22T08:01:09;1.07;;;0.20;;
16928;SDS011;8581;47.334;11.190;2023-11-22T08:03:41;0.30;;;0.30;;
16928;SDS011;8581;47.334;11.190;2023-11-22T08:06:13;0.40;;;0.40;;
16928;SDS011;8581;47.334;11.190;2023-11-22T08:08:45;0.70;;;0.70;;
16928;SDS011;8581;47.334;11.190;2023-11-22T08:11:17;0.50;;;0.50;;
16928;SDS011;8581;47.334;11.190;2023-11-22T08:13:48;0.30;;;0.30;;
16928;SDS011;8581;47.334;11.190;2023-11-22T08:16:20;0.30;;;0.30;;
16928;SDS011;8581;47.334;11.190;2023-11-22T08:18:51;0.30;;;0.30;;
16928;SDS011;8581;47.334;11.190;2023-11-22T08:21:23;0.30;;;0.30;;
16928;SDS011;8581;47.334;11.190;2023-11-22T08:23:55;0.13;;;0.13;;
16928;SDS011;8581;47.334;11.190;2023-11-22T08:26:26;0.10;;;0.10;;
16928;SDS011;8581;47.334;11.190;2023-11-22T08:28:58;0.50;;;0.20;;
16928;SDS011;8581;47.334;11.190;2023-11-22T08:31:30;0.20;;;0.20;;
16928;SDS011;8581;47.334;11.190;2023-11-22T08:34:01;0.20;;;0.20;;
16928;SDS011;8581;47.334;11.190;2023-11-22T08:36:33;0.87;;;0.20;;
16928;SDS011;8581;47.334;11.190;2023-11-22T08:39:04;0.10;;;0.10;;
16928;SDS011;8581;47.334;11.190;2023-11-22T08:41:36;0.47;;;0.27;;
16928;SDS011;8581;47.334;11.190;2023-11-22T08:44:08;0.37;;;0.37;;
16928;SDS011;8581;47.334;11.190;2023-11-22T08:46:39;0.30;;;0.30;;
16928;SDS011;8581;47.334;11.190;2023-11-22T08:49:11;0.50;;;0.50;;
16928;SDS011;8581;47.334;11.190;2023-11-22T08:51:42;0.40;;;0.40;;
16928;SDS011;8581;47.334;11.190;2023-11-22T08:54:14;0.10;;;0.10;;
16928;SDS011;8581;47.334;11.190;2023-11-22T08:56:46;0.30;;;0.20;;
16928;SDS011;8581;47.334;11.190;2023-11-22T08:59:17;0.10;;;0.10;;
16928;SDS011;8581;47.334;11.190;2023-11-22T09:01:49;0.20;;;0.20;;
16928;SDS011;8581;47.334;11.190;2023-11-22T09:04:20;0.40;;;0.40;;
16928;SDS011;8581;47.334;11.190;2023-11-22T09:06:52;0.00;;;0.00;;
16928;SDS011;8581;47.334;11.190;2023-11-22T09:09:24;0.20;;;0.20;;
16928;SDS011;8581;47.334;11.190;2023-11-22T09:11:58;2.20;;;0.60;;
16928;SDS011;8581;47.334;11.190;2023-11-22T09:14:29;0.20;;;0.20;;
16928;SDS011;8581;47.334;11.190;2023-11-22T09:17:01;0.10;;;0.10;;
16928;SDS011;8581;47.334;11.190;2023-11-22T09:19:32;0.30;;;0.30;;
16928;SDS011;8581;47.334;11.190;2023-11-22T09:22:04;0.20;;;0.20;;
16928;SDS011;8581;47.334;11.190;2023-11-22T09:24:36;0.10;;;0.10;;
16928;SDS011;8581;47.334;11.190;2023-11-22T09:27:08;0.10;;;0.10;;
16928;SDS011;8581;47.334;11.190;2023-11-22T09:29:39;1.23;;;0.20;;
16928;SDS011;8581;47.334;11.190;2023-11-22T09:32:11;0.87;;;0.87;;
16928;SDS011;8581;47.334;11.190;2023-11-22T09:34:43;0.20;;;0.20;;
16928;SDS011;8581;47.334;11.190;2023-11-22T09:37:14;0.27;;;0.27;;
16928;SDS011;8581;47.334;11.190;2023-11-22T09:39:46;0.10;;;0.10;;
16928;SDS011;8581;47.334;11.190;2023-11-22T09:42:17;0.10;;;0.10;;
16928;SDS011;8581;47.334;11.190;2023-11-22T09:44:49;0.00;;;0.00;;
16928;SDS011;8581;47.334;11.190;2023-11-22T09:47:21;0.10;;;0.10;;
16928;SDS011;8581;47.334;11.190;2023-11-22T09:49:52;0.10;;;0.10;;
16928;SDS011;8581;47.334;11.190;2023-11-22T09:52:24;0.20;;;0.20;;
16928;SDS011;8581;47.334;11.190;2023-11-22T09:54:55;0.10;;;0.10;;
16928;SDS011;8581;47.334;11.190;2023-11-22T09:57:27;0.10;;;0.10;;
16928;SDS011;8581;47.334;11.190;2023-11-22T09:59:59;0.20;;;0.20;;
16928;SDS011;8581;47.334;11.190;2023-11-22T10:02:30;0.10;;;0.10;;
16928;SDS011;8581;47.334;11.190;2023-11-22T10:05:02;0.40;;;0.20;;
16928;SDS011;8581;47.334;11.190;2023-11-22T10:07:34;0.40;;;0.20;;
16928;SDS011;8581;47.334;11.190;2023-11-22T10:10:07;0.10;;;0.10;;
16928;SDS011;8581;47.334;11.190;2023-11-22T10:12:39;0.17;;;0.17;;
16928;SDS011;8581;47.334;11.190;2023-11-22T10:15:12;0.67;;;0.20;;
16928;SDS011;8581;47.334;11.190;2023-11-22T10:17:47;0.10;;;0.10;;
16928;SDS011;8581;47.334;11.190;2023-11-22T10:20:22;0.10;;;0.10;;
16928;SDS011;8581;47.334;11.190;2023-11-22T10:22:53;0.20;;;0.20;;
16928;SDS011;8581;47.334;11.190;2023-11-22T10:25:25;0.00;;;0.00;;
16928;SDS011;8581;47.334;11.190;2023-11-22T10:27:57;0.40;;;0.40;;
16928;SDS011;8581;47.334;11.190;2023-11-22T10:30:28;0.20;;;0.20;;
16928;SDS011;8581;47.334;11.190;2023-11-22T10:33:00;0.10;;;0.10;;
16928;SDS011;8581;47.334;11.190;2023-11-22T10:35:31;0.20;;;0.20;;
16928;SDS011;8581;47.334;11.190;2023-11-22T10:38:03;0.07;;;0.07;;
16928;SDS011;8581;47.334;11.190;2023-11-22T10:40:35;0.20;;;0.20;;
16928;SDS011;8581;47.334;11.190;2023-11-22T10:43:06;0.10;;;0.10;;
16928;SDS011;8581;47.334;11.190;2023-11-22T10:45:38;0.20;;;0.10;;
16928;SDS011;8581;47.334;11.190;2023-11-22T10:48:10;0.03;;;0.03;;
16928;SDS011;8581;47.334;11.190;2023-11-22T10:50:42;0.20;;;0.20;;
16928;SDS011;8581;47.334;11.190;2023-11-22T10:53:15;0.20;;;0.20;;
16928;SDS011;8581;47.334;11.190;2023-11-22T10:55:47;0.20;;;0.20;;
16928;SDS011;8581;47.334;11.190;2023-11-22T10:58:18;0.20;;;0.20;;
16928;SDS011;8581;47.334;11.190;2023-11-22T11:00:50;0.10;;;0.10;;
16928;SDS011;8581;47.334;11.190;2023-11-22T11:03:21;0.20;;;0.20;;
16928;SDS011;8581;47.334;11.190;2023-11-22T11:05:56;0.30;;;0.30;;
16928;SDS011;8581;47.334;11.190;2023-11-22T11:08:26;0.20;;;0.20;;
16928;SDS011;8581;47.334;11.190;2023-11-22T11:10:58;0.10;;;0.10;;
16928;SDS011;8581;47.334;11.190;2023-11-22T11:13:29;0.17;;;0.17;;
16928;SDS011;8581;47.334;11.190;2023-11-22T11:16:01;0.10;;;0.10;;
16928;SDS011;8581;47.334;11.190;2023-11-22T11:18:32;0.10;;;0.10;;
16928;SDS011;8581;47.334;11.190;2023-11-22T11:21:07;0.10;;;0.10;;
16928;SDS011;8581;47.334;11.190;2023-11-22T11:23:39;0.10;;;0.10;;
16928;SDS011;8581;47.334;11.190;2023-11-22T11:26:16;0.20;;;0.20;;
16928;SDS011;8581;47.334;11.190;2023-11-22T11:28:49;0.10;;;0.10;;
16928;SDS011;8581;47.334;11.190;2023-11-22T11:31:20;0.07;;;0.07;;
16928;SDS011;8581;47.334;11.190;2023-11-22T11:33:54;0.10;;;0.10;;
16928;SDS011;8581;47.334;11.190;2023-11-22T11:36:25;0.20;;;0.10;;
16928;SDS011;8581;47.334;11.190;2023-11-22T11:38:56;0.20;;;0.20;;
16928;SDS011;8581;47.334;11.190;2023-11-22T11:41:29;0.10;;;0.10;;
16928;SDS011;8581;47.334;11.190;2023-11-22T11:44:01;0.27;;;0.27;;
16928;SDS011;8581;47.334;11.190;2023-11-22T11:46:32;0.50;;;0.40;;
16928;SDS011;8581;47.334;11.190;2023-11-22T11:49:06;0.30;;;0.30;;
16928;SDS011;8581;47.334;11.190;2023-11-22T11:51:40;0.30;;;0.30;;
16928;SDS011;8581;47.334;11.190;2023-11-22T11:54:12;0.20;;;0.20;;
16928;SDS011;8581;47.334;11.190;2023-11-22T11:56:43;0.20;;;0.20;;
16928;SDS011;8581;47.334;11.190;2023-11-22T11:59:15;1.52;;;0.30;;
16928;SDS011;8581;47.334;11.190;2023-11-22T12:01:46;0.30;;;0.30;;
16928;SDS011;8581;47.334;11.190;2023-11-22T12:04:18;0.20;;;0.20;;
16928;SDS011;8581;47.334;11.190;2023-11-22T12:06:49;0.30;;;0.30;;
16928;SDS011;8581;47.334;11.190;2023-11-22T12:09:22;0.40;;;0.40;;
16928;SDS011;8581;47.334;11.190;2023-11-22T12:11:53;0.30;;;0.30;;
16928;SDS011;8581;47.334;11.190;2023-11-22T12:14:25;0.40;;;0.40;;
16928;SDS011;8581;47.334;11.190;2023-11-22T12:16:57;0.30;;;0.30;;
16928;SDS011;8581;47.334;11.190;2023-11-22T12:19:28;0.20;;;0.20;;
16928;SDS011;8581;47.334;11.190;2023-11-22T12:22:00;0.30;;;0.30;;
16928;SDS011;8581;47.334;11.190;2023-11-22T12:24:32;0.30;;;0.30;;
16928;SDS011;8581;47.334;11.190;2023-11-22T12:27:04;0.30;;;0.30;;
16928;SDS011;8581;47.334;11.190;2023-11-22T12:29:36;0.30;;;0.30;;
16928;SDS011;8581;47.334;11.190;2023-11-22T12:32:07;0.20;;;0.20;;
16928;SDS011;8581;47.334;11.190;2023-11-22T12:34:39;0.20;;;0.20;;
16928;SDS011;8581;47.334;11.190;2023-11-22T12:37:10;0.20;;;0.20;;
16928;SDS011;8581;47.334;11.190;2023-11-22T12:39:42;0.30;;;0.30;;
16928;SDS011;8581;47.334;11.190;2023-11-22T12:42:13;0.20;;;0.20;;
16928;SDS011;8581;47.334;11.190;2023-11-22T12:44:48;0.40;;;0.40;;
16928;SDS011;8581;47.334;11.190;2023-11-22T12:50:03;0.30;;;0.30;;
16928;SDS011;8581;47.334;11.190;2023-11-22T12:52:35;0.30;;;0.30;;
16928;SDS011;8581;47.334;11.190;2023-11-22T12:55:07;0.20;;;0.20;;
16928;SDS011;8581;47.334;11.190;2023-11-22T12:57:39;0.30;;;0.30;;
16928;SDS011;8581;47.334;11.190;2023-11-22T13:00:11;0.25;;;0.25;;
16928;SDS011;8581;47.334;11.190;2023-11-22T13:02:43;0.45;;;0.30;;
16928;SDS011;8581;47.334;11.190;2023-11-22T13:05:15;0.25;;;0.25;;
16928;SDS011;8581;47.334;11.190;2023-11-22T13:07:46;1.75;;;0.40;;
16928;SDS011;8581;47.334;11.190;2023-11-22T13:10:18;0.20;;;0.20;;
16928;SDS011;8581;47.334;11.190;2023-11-22T13:12:50;0.80;;;0.40;;
16928;SDS011;8581;47.334;11.190;2023-11-22T13:15:21;0.40;;;0.40;;
16928;SDS011;8581;47.334;11.190;2023-11-22T13:17:53;0.30;;;0.30;;
16928;SDS011;8581;47.334;11.190;2023-11-22T13:20:26;0.30;;;0.30;;
16928;SDS011;8581;47.334;11.190;2023-11-22T13:22:57;0.30;;;0.30;;
16928;SDS011;8581;47.334;11.190;2023-11-22T13:25:29;0.20;;;0.20;;
16928;SDS011;8581;47.334;11.190;2023-11-22T13:28:01;0.25;;;0.25;;
16928;SDS011;8581;47.334;11.190;2023-11-22T13:30:32;0.30;;;0.30;;
16928;SDS011;8581;47.334;11.190;2023-11-22T13:33:04;0.23;;;0.23;;
16928;SDS011;8581;47.334;11.190;2023-11-22T13:35:36;0.20;;;0.20;;
16928;SDS011;8581;47.334;11.190;2023-11-22T13:38:07;0.33;;;0.33;;
16928;SDS011;8581;47.334;11.190;2023-11-22T13:40:39;0.30;;;0.30;;
16928;SDS011;8581;47.334;11.190;2023-11-22T13:43:11;0.30;;;0.30;;
16928;SDS011;8581;47.334;11.190;2023-11-22T13:45:43;0.57;;;0.57;;
16928;SDS011;8581;47.334;11.190;2023-11-22T13:48:15;0.40;;;0.40;;
16928;SDS011;8581;47.334;11.190;2023-11-22T13:50:47;0.47;;;0.47;;
16928;SDS011;8581;47.334;11.190;2023-11-22T13:53:18;2.00;;;0.50;;
16928;SDS011;8581;47.334;11.190;2023-11-22T13:55:50;0.50;;;0.50;;
16928;SDS011;8581;47.334;11.190;2023-11-22T13:58:21;0.50;;;0.50;;
16928;SDS011;8581;47.334;11.190;2023-11-22T14:00:53;0.70;;;0.70;;
16928;SDS011;8581;47.334;11.190;2023-11-22T14:03:25;0.70;;;0.70;;
16928;SDS011;8581;47.334;11.190;2023-11-22T14:05:56;0.60;;;0.60;;
16928;SDS011;8581;47.334;11.190;2023-11-22T14:08:28;0.50;;;0.50;;
16928;SDS011;8581;47.334;11.190;2023-11-22T14:10:59;0.60;;;0.60;;
16928;SDS011;8581;47.334;11.190;2023-11-22T14:13:31;0.50;;;0.50;;
16928;SDS011;8581;47.334;11.190;2023-11-22T14:16:03;0.50;;;0.50;;
16928;SDS011;8581;47.334;11.190;2023-11-22T14:18:35;0.63;;;0.63;;
16928;SDS011;8581;47.334;11.190;2023-11-22T14:21:07;0.80;;;0.80;;
16928;SDS011;8581;47.334;11.190;2023-11-22T14:23:38;0.60;;;0.60;;
16928;SDS011;8581;47.334;11.190;2023-11-22T14:26:10;0.80;;;0.80;;
16928;SDS011;8581;47.334;11.190;2023-11-22T14:28:41;0.77;;;0.77;;
16928;SDS011;8581;47.334;11.190;2023-11-22T14:31:13;0.90;;;0.90;;
16928;SDS011;8581;47.334;11.190;2023-11-22T14:33:45;1.03;;;1.00;;
16928;SDS011;8581;47.334;11.190;2023-11-22T14:36:16;0.83;;;0.83;;
16928;SDS011;8581;47.334;11.190;2023-11-22T14:38:48;0.90;;;0.90;;
16928;SDS011;8581;47.334;11.190;2023-11-22T14:41:20;0.80;;;0.80;;
16928;SDS011;8581;47.334;11.190;2023-11-22T14:43:51;1.07;;;1.07;;
16928;SDS011;8581;47.334;11.190;2023-11-22T14:46:23;1.30;;;1.20;;
16928;SDS011;8581;47.334;11.190;2023-11-22T14:48:54;1.07;;;1.07;;
16928;SDS011;8581;47.334;11.190;2023-11-22T14:51:26;1.40;;;1.30;;
16928;SDS011;8581;47.334;11.190;2023-11-22T14:53:57;0.93;;;0.93;;
16928;SDS011;8581;47.334;11.190;2023-11-22T14:56:29;1.27;;;1.20;;
16928;SDS011;8581;47.334;11.190;2023-11-22T14:59:01;1.60;;;1.50;;
16928;SDS011;8581;47.334;11.190;2023-11-22T15:01:32;1.20;;;1.10;;
16928;SDS011;8581;47.334;11.190;2023-11-22T15:04:04;1.27;;;1.17;;
16928;SDS011;8581;47.334;11.190;2023-11-22T15:06:36;1.10;;;1.10;;
16928;SDS011;8581;47.334;11.190;2023-11-22T15:09:08;1.20;;;1.20;;
16928;SDS011;8581;47.334;11.190;2023-11-22T15:11:40;2.10;;;1.20;;
16928;SDS011;8581;47.334;11.190;2023-11-22T15:14:11;2.30;;;2.10;;
16928;SDS011;8581;47.334;11.190;2023-11-22T15:16:43;1.37;;;1.10;;